Time;durP1;ratioP1;P1;durP2;ratioP2;P2;SDS_P1;SDS_P2;PMS_P1;PMS_P2;Temp;Humidity;BMP_temperature;BMP_pressure;BME280_temperature;BME280_humidity;BME280_pressure;Samples;Min_cycle;Max_cycle;Signal;HPM_P1;HPM_P2
2022/02/15 00:02:18;;;;;;;5.03;1.90;;;7.90;99.90;;;;;;4947465;29;20122;-74
2022/02/15 00:04:43;;;;;;;4.32;1.55;;;7.90;99.90;;;;;;4946999;29;20056;-73
2022/02/15 00:07:09;;;;;;;5.15;1.85;;;7.90;99.90;;;;;;4947251;29;20028;-73
2022/02/15 00:09:35;;;;;;;6.32;2.30;;;7.90;99.90;;;;;;4947570;29;20115;-72
2022/02/15 00:12:01;;;;;;;10.60;1.98;;;7.90;99.90;;;;;;4947300;29;20042;-74
2022/02/15 00:14:26;;;;;;;8.15;2.05;;;7.90;99.90;;;;;;4947249;29;20067;-74
2022/02/15 00:16:52;;;;;;;5.10;2.08;;;7.90;99.90;;;;;;4946183;29;20409;-72
2022/02/15 00:19:18;;;;;;;3.70;1.90;;;7.90;99.90;;;;;;4927894;29;20032;-73
2022/02/15 00:21:44;;;;;;;3.67;2.03;;;7.90;99.90;;;;;;4939638;29;20028;-73
2022/02/15 00:24:10;;;;;;;5.00;2.60;;;7.90;99.90;;;;;;4947716;29;20040;-72
2022/02/15 00:26:36;;;;;;;3.88;2.10;;;7.90;99.90;;;;;;4946590;29;20043;-73
2022/02/15 00:29:02;;;;;;;5.03;2.45;;;7.80;99.90;;;;;;4945694;29;20048;-75
2022/02/15 00:31:28;;;;;;;12.73;2.22;;;7.80;99.90;;;;;;4947258;29;20023;-73
2022/02/15 00:33:55;;;;;;;6.80;2.72;;;7.80;99.90;;;;;;4946676;29;20042;-74
2022/02/15 00:36:20;;;;;;;4.60;2.22;;;7.80;99.90;;;;;;4946928;29;20059;-73
2022/02/15 00:38:46;;;;;;;4.07;1.95;;;7.80;99.90;;;;;;4947284;29;20028;-72
2022/02/15 00:41:11;;;;;;;18.02;2.10;;;7.90;99.90;;;;;;4946476;29;20035;-72
2022/02/15 00:43:37;;;;;;;5.13;2.47;;;7.80;99.90;;;;;;4945519;29;20067;-72
2022/02/15 00:46:04;;;;;;;3.50;2.15;;;7.80;99.90;;;;;;4946753;29;20024;-74
2022/02/15 00:48:31;;;;;;;7.75;2.33;;;7.90;99.90;;;;;;4946833;29;20469;-72
2022/02/15 00:50:56;;;;;;;4.07;1.77;;;7.80;99.90;;;;;;4947136;29;20024;-72
2022/02/15 00:53:22;;;;;;;3.63;1.73;;;7.80;99.90;;;;;;4946777;29;20035;-73
2022/02/15 00:55:48;;;;;;;12.52;2.38;;;7.80;99.90;;;;;;4946266;29;20050;-72
2022/02/15 00:58:13;;;;;;;4.25;1.95;;;7.80;99.90;;;;;;4946720;29;20469;-72
2022/02/15 01:00:39;;;;;;;3.50;2.00;;;7.80;99.90;;;;;;4946774;29;20028;-74
2022/02/15 01:03:05;;;;;;;5.90;2.53;;;7.80;99.90;;;;;;4946634;29;20031;-74
2022/02/15 01:05:31;;;;;;;7.00;2.63;;;7.80;99.90;;;;;;4950718;29;20028;-73
2022/02/15 01:07:56;;;;;;;5.00;2.63;;;7.80;99.90;;;;;;4950398;29;20036;-71
2022/02/15 01:10:22;;;;;;;3.97;2.38;;;7.80;99.90;;;;;;4950410;29;20063;-73
2022/02/15 01:12:49;;;;;;;7.72;2.17;;;7.80;99.90;;;;;;4950411;29;20392;-71
2022/02/15 01:15:18;;;;;;;10.38;2.05;;;7.80;99.90;;;;;;4949894;29;20480;-74
2022/02/15 01:17:44;;;;;;;9.00;2.30;;;7.80;99.90;;;;;;4950167;29;20540;-74
2022/02/15 01:20:10;;;;;;;4.95;2.50;;;7.80;99.90;;;;;;4950314;29;20043;-72
2022/02/15 01:22:37;;;;;;;4.07;2.22;;;7.80;99.90;;;;;;4950021;29;20059;-74
2022/02/15 01:25:04;;;;;;;5.32;2.50;;;7.70;99.90;;;;;;4950022;29;20071;-73
2022/02/15 01:27:29;;;;;;;7.20;2.55;;;7.70;99.90;;;;;;4950504;29;20070;-73
2022/02/15 01:29:55;;;;;;;6.15;2.30;;;7.70;99.90;;;;;;4948450;29;20075;-72
2022/02/15 01:32:20;;;;;;;16.90;3.05;;;7.70;99.90;;;;;;4948599;29;20059;-74
2022/02/15 01:34:46;;;;;;;6.43;2.22;;;7.70;99.90;;;;;;4950022;29;20035;-73
2022/02/15 01:37:12;;;;;;;4.72;1.98;;;7.70;99.90;;;;;;4949527;29;20036;-73
2022/02/15 01:39:38;;;;;;;4.65;1.95;;;7.70;99.90;;;;;;4950021;29;20074;-72
2022/02/15 01:42:04;;;;;;;3.55;1.95;;;7.70;99.90;;;;;;4949990;29;20051;-71
2022/02/15 01:44:30;;;;;;;5.40;2.25;;;7.60;99.90;;;;;;4949830;29;20047;-72
2022/02/15 01:46:57;;;;;;;6.38;3.08;;;7.50;99.90;;;;;;4949899;29;20034;-71
2022/02/15 01:49:23;;;;;;;3.30;1.73;;;7.50;99.90;;;;;;4950106;29;20055;-71
2022/02/15 01:51:49;;;;;;;24.27;3.10;;;7.40;99.90;;;;;;4949395;29;20027;-71
2022/02/15 01:54:14;;;;;;;5.65;1.90;;;7.40;99.90;;;;;;4949598;29;20028;-72
2022/02/15 01:56:40;;;;;;;3.30;2.00;;;7.40;99.90;;;;;;4949390;29;20583;-72
2022/02/15 01:59:06;;;;;;;3.00;1.50;;;7.30;99.90;;;;;;4949425;29;20031;-72
2022/02/15 02:01:31;;;;;;;3.45;1.85;;;7.30;99.90;;;;;;4949466;29;20091;-73
2022/02/15 02:03:57;;;;;;;2.85;1.52;;;7.30;99.90;;;;;;4949527;29;20035;-72
2022/02/15 02:06:22;;;;;;;3.15;1.23;;;7.30;99.90;;;;;;4949424;29;20031;-71
2022/02/15 02:08:48;;;;;;;1.25;0.98;;;7.30;99.90;;;;;;4949409;29;20056;-71
2022/02/15 02:11:14;;;;;;;2.80;1.45;;;7.30;99.90;;;;;;4949144;29;20042;-72
2022/02/15 02:13:39;;;;;;;3.42;1.08;;;7.30;99.90;;;;;;4950055;29;20047;-71
2022/02/15 02:16:06;;;;;;;1.38;0.70;;;7.20;99.90;;;;;;4946934;29;20448;-72
2022/02/15 02:18:31;;;;;;;1.25;0.88;;;7.20;99.90;;;;;;4940898;29;20020;-72
2022/02/15 02:21:05;;;;;;;2.33;1.15;;;7.20;99.90;;;;;;4929910;29;20032;-72
2022/02/15 02:23:31;;;;;;;0.68;0.43;;;7.20;99.90;;;;;;4944424;29;20032;-72
2022/02/15 02:25:57;;;;;;;1.85;0.75;;;7.20;99.90;;;;;;4948886;29;20075;-73
2022/02/15 02:28:23;;;;;;;0.80;0.60;;;7.10;99.90;;;;;;4948610;29;20035;-70
2022/02/15 02:30:49;;;;;;;2.03;0.70;;;7.10;99.90;;;;;;4950101;29;20042;-73
2022/02/15 02:33:15;;;;;;;0.95;0.47;;;7.10;99.90;;;;;;4971610;28;20028;-72
2022/02/15 02:35:40;;;;;;;6.15;0.60;;;7.10;99.90;;;;;;4947436;29;20043;-73
2022/02/15 02:38:06;;;;;;;4.07;0.65;;;7.10;99.90;;;;;;4948762;29;20038;-75
2022/02/15 02:40:33;;;;;;;2.22;0.80;;;7.10;99.90;;;;;;4948896;29;20064;-71
2022/02/15 02:42:59;;;;;;;2.22;0.93;;;7.10;99.90;;;;;;4949018;29;20087;-72
2022/02/15 02:45:25;;;;;;;2.42;1.02;;;7.10;99.90;;;;;;4948494;29;20366;-72
2022/02/15 02:47:53;;;;;;;2.47;0.82;;;7.10;99.90;;;;;;4933867;29;20047;-72
2022/02/15 02:50:21;;;;;;;2.47;1.27;;;7.10;99.90;;;;;;4931082;29;20039;-71
2022/02/15 02:52:47;;;;;;;6.75;1.23;;;7.00;99.90;;;;;;4948381;29;20075;-72
2022/02/15 02:55:13;;;;;;;2.03;1.10;;;7.00;99.90;;;;;;4948378;29;20039;-72
2022/02/15 02:57:40;;;;;;;3.00;1.17;;;7.00;99.90;;;;;;4948557;29;20036;-72
2022/02/15 03:00:10;;;;;;;0.98;0.60;;;6.90;99.90;;;;;;4948225;29;20028;-71
2022/02/15 03:02:36;;;;;;;3.05;0.90;;;6.90;99.90;;;;;;4948868;29;20035;-72
2022/02/15 03:05:02;;;;;;;4.53;1.48;;;6.90;99.90;;;;;;4948616;29;20092;-71
2022/02/15 03:07:28;;;;;;;1.65;0.88;;;6.90;99.90;;;;;;4948039;29;20032;-71
2022/02/15 03:09:53;;;;;;;6.70;1.30;;;6.80;99.90;;;;;;4948196;29;20028;-72
2022/02/15 03:12:19;;;;;;;5.43;1.38;;;6.80;99.90;;;;;;4954473;29;20055;-73
2022/02/15 03:14:45;;;;;;;2.03;1.17;;;6.80;99.90;;;;;;4947789;29;20042;-72
2022/02/15 03:17:11;;;;;;;3.55;1.40;;;6.80;99.90;;;;;;4944929;29;20039;-72
2022/02/15 03:19:37;;;;;;;5.75;1.00;;;6.80;99.90;;;;;;4929272;29;20381;-72
2022/02/15 03:22:02;;;;;;;2.45;1.00;;;6.80;99.90;;;;;;4938349;29;20109;-74
2022/02/15 03:24:28;;;;;;;3.88;0.82;;;6.80;99.90;;;;;;4947168;29;20044;-72
2022/02/15 03:26:54;;;;;;;2.28;1.02;;;6.80;99.90;;;;;;4947666;29;20666;-71
2022/02/15 03:29:19;;;;;;;2.28;0.90;;;6.80;99.90;;;;;;4961961;29;20070;-71
2022/02/15 03:31:45;;;;;;;5.47;0.95;;;6.80;99.90;;;;;;4939353;29;20024;-71
2022/02/15 03:34:11;;;;;;;1.88;1.10;;;6.80;99.90;;;;;;4928658;29;20040;-72
2022/02/15 03:36:38;;;;;;;3.30;1.08;;;6.70;99.90;;;;;;4928457;29;20043;-73
2022/02/15 03:39:06;;;;;;;5.35;1.35;;;6.70;99.90;;;;;;4928866;29;20036;-75
2022/02/15 03:44:20;;;;;;;2.13;0.88;;;6.70;99.90;;;;;;4947513;29;20096;-72
2022/02/15 03:46:46;;;;;;;5.32;1.60;;;6.60;99.90;;;;;;4947561;29;20024;-71
2022/02/15 03:49:12;;;;;;;3.42;1.38;;;6.70;99.90;;;;;;4946017;29;20055;-72
2022/02/15 03:51:40;;;;;;;2.38;1.27;;;6.60;99.90;;;;;;4947414;29;20038;-74
2022/02/15 03:54:06;;;;;;;21.05;1.70;;;6.60;99.90;;;;;;4962409;29;20024;-71
2022/02/15 03:56:36;;;;;;;7.07;1.20;;;6.60;99.90;;;;;;4947330;29;20039;-72
2022/02/15 03:59:04;;;;;;;4.88;1.42;;;6.50;99.90;;;;;;4947616;29;20110;-75
2022/02/15 04:01:32;;;;;;;3.38;1.10;;;6.50;99.90;;;;;;4946230;29;20044;-71
2022/02/15 04:03:57;;;;;;;2.45;1.45;;;6.50;99.90;;;;;;4947715;29;20038;-72
2022/02/15 04:06:23;;;;;;;1.13;0.73;;;6.50;99.90;;;;;;4947406;29;20055;-71
2022/02/15 04:08:48;;;;;;;3.35;1.27;;;6.50;99.90;;;;;;4947018;29;20024;-71
2022/02/15 04:11:14;;;;;;;3.65;1.55;;;6.50;99.90;;;;;;4946132;29;20024;-73
2022/02/15 04:13:40;;;;;;;2.33;1.42;;;6.50;99.90;;;;;;4947273;29;20217;-72
2022/02/15 04:16:08;;;;;;;3.35;1.23;;;6.50;99.90;;;;;;4947091;29;20039;-72
2022/02/15 04:18:34;;;;;;;4.43;1.60;;;6.50;99.90;;;;;;4947443;29;20027;-73
2022/02/15 04:21:00;;;;;;;2.05;1.33;;;6.50;99.90;;;;;;4947643;29;20035;-71
2022/02/15 04:23:29;;;;;;;3.40;1.77;;;6.50;99.90;;;;;;4946806;29;20059;-72
2022/02/15 04:25:55;;;;;;;4.63;1.52;;;6.50;99.90;;;;;;4947306;29;20035;-75
2022/02/15 04:28:20;;;;;;;4.03;1.95;;;6.50;99.90;;;;;;4946968;29;20039;-72
2022/02/15 04:30:46;;;;;;;1.92;1.05;;;6.50;99.90;;;;;;4927730;29;20040;-73
2022/02/15 04:33:13;;;;;;;2.72;1.17;;;6.40;99.90;;;;;;4928224;29;20043;-74
2022/02/15 04:35:39;;;;;;;9.00;1.85;;;6.50;99.90;;;;;;4927664;29;20032;-73
2022/02/15 04:38:04;;;;;;;4.18;1.80;;;6.40;99.90;;;;;;4928346;29;20028;-75
2022/02/15 04:40:31;;;;;;;4.70;1.67;;;6.40;99.90;;;;;;4932161;29;20047;-72
2022/02/15 04:42:56;;;;;;;9.52;1.85;;;6.40;99.90;;;;;;4931532;29;20035;-74
2022/02/15 04:45:22;;;;;;;5.43;1.38;;;6.40;99.90;;;;;;4923211;29;20028;-74
2022/02/15 04:47:48;;;;;;;6.72;1.88;;;6.40;99.90;;;;;;4946493;29;20409;-75
2022/02/15 04:50:13;;;;;;;11.20;2.58;;;6.40;99.90;;;;;;4931577;29;20032;-73
2022/02/15 04:52:39;;;;;;;4.50;1.65;;;6.40;99.90;;;;;;4931596;29;20031;-74
2022/02/15 04:55:05;;;;;;;6.35;2.00;;;6.40;99.90;;;;;;4931744;29;20044;-72
2022/02/15 04:57:31;;;;;;;4.38;2.10;;;6.40;99.90;;;;;;4931421;29;20024;-71
2022/02/15 04:59:56;;;;;;;14.68;2.28;;;6.30;99.90;;;;;;4931868;29;20095;-73
2022/02/15 05:02:22;;;;;;;3.25;2.05;;;6.40;99.90;;;;;;4931618;29;20102;-73
2022/02/15 05:04:50;;;;;;;9.15;1.92;;;6.40;99.90;;;;;;4931211;29;20032;-73
2022/02/15 05:07:18;;;;;;;4.53;2.13;;;6.40;99.90;;;;;;4931613;29;20032;-75
2022/02/15 05:09:44;;;;;;;4.38;2.17;;;6.40;99.90;;;;;;4931448;29;20535;-73
2022/02/15 05:12:11;;;;;;;8.40;1.98;;;6.40;99.90;;;;;;4930996;29;20032;-72
2022/02/15 05:14:37;;;;;;;2.38;1.48;;;6.40;99.90;;;;;;4931226;29;20480;-73
2022/02/15 05:17:03;;;;;;;4.03;1.70;;;6.40;99.90;;;;;;4931093;29;20080;-74
2022/02/15 05:19:29;;;;;;;8.30;2.47;;;6.40;99.90;;;;;;4931538;29;20032;-73
2022/02/15 05:21:55;;;;;;;5.90;2.17;;;6.40;99.90;;;;;;4931305;29;20035;-75
2022/02/15 05:24:30;;;;;;;7.10;2.35;;;6.30;99.90;;;;;;4945697;29;20064;-73
2022/02/15 05:26:55;;;;;;;5.20;1.95;;;6.40;99.90;;;;;;4931246;29;20083;-73
2022/02/15 05:29:21;;;;;;;5.20;2.60;;;6.40;99.90;;;;;;4938857;29;20134;-74
2022/02/15 05:31:49;;;;;;;4.85;2.40;;;6.40;99.90;;;;;;4948488;29;20028;-74
2022/02/15 05:34:15;;;;;;;5.35;2.45;;;6.40;99.90;;;;;;4950305;29;20028;-73
2022/02/15 05:36:41;;;;;;;14.52;2.22;;;6.40;99.90;;;;;;4964721;29;20532;-72
2022/02/15 05:39:07;;;;;;;4.45;2.10;;;6.40;99.90;;;;;;4947808;29;20023;-72
2022/02/15 05:41:33;;;;;;;4.00;1.60;;;6.40;99.90;;;;;;4946741;29;20032;-74
2022/02/15 05:44:00;;;;;;;8.73;2.30;;;6.40;99.90;;;;;;4950174;29;20054;-73
2022/02/15 05:46:25;;;;;;;5.20;2.60;;;6.40;99.90;;;;;;4964416;29;20056;-75
2022/02/15 05:48:51;;;;;;;11.45;2.45;;;6.40;99.90;;;;;;4949901;29;20032;-74
2022/02/15 05:51:16;;;;;;;8.52;3.00;;;6.30;99.90;;;;;;4949507;29;20032;-73
2022/02/15 05:53:42;;;;;;;18.95;2.75;;;6.30;99.90;;;;;;4948241;29;20024;-72
2022/02/15 05:56:08;;;;;;;7.53;2.42;;;6.30;99.90;;;;;;4937945;29;20063;-72
2022/02/15 05:58:33;;;;;;;6.40;2.60;;;6.30;99.90;;;;;;4930564;29;20031;-73
2022/02/15 06:01:01;;;;;;;6.88;2.80;;;6.30;99.90;;;;;;4930676;29;20039;-73
2022/02/15 06:06:12;;;;;;;7.70;2.22;;;6.30;99.90;;;;;;4942458;29;20095;-72
2022/02/15 06:08:37;;;;;;;8.05;2.30;;;6.30;99.90;;;;;;4949084;29;20027;-73
2022/02/15 06:11:03;;;;;;;4.65;1.98;;;6.30;99.90;;;;;;4949618;29;20067;-74
2022/02/15 06:13:32;;;;;;;4.93;1.85;;;6.30;99.90;;;;;;4949471;29;20115;-73
2022/02/15 06:15:58;;;;;;;8.48;2.50;;;6.30;99.90;;;;;;4949054;29;20069;-73
2022/02/15 06:18:24;;;;;;;11.90;3.63;;;6.30;99.90;;;;;;4949461;29;20110;-73
2022/02/15 06:20:49;;;;;;;9.73;3.10;;;6.30;99.90;;;;;;4949101;29;20087;-72
2022/02/15 06:23:15;;;;;;;3.75;2.20;;;6.30;99.90;;;;;;4948848;29;20028;-73
2022/02/15 06:25:41;;;;;;;3.90;1.98;;;6.30;99.90;;;;;;4941168;29;20040;-74
2022/02/15 06:28:08;;;;;;;4.35;1.98;;;6.30;99.90;;;;;;4930050;29;20087;-72
2022/02/15 06:30:34;;;;;;;5.80;2.45;;;6.30;99.90;;;;;;4929631;29;20052;-71
2022/02/15 06:33:00;;;;;;;8.35;2.42;;;6.30;99.90;;;;;;4930297;29;20035;-70
2022/02/15 06:35:26;;;;;;;4.65;1.85;;;6.20;99.90;;;;;;4929762;29;20540;-72
2022/02/15 06:37:52;;;;;;;6.43;2.72;;;6.20;99.90;;;;;;4944082;29;20024;-72
2022/02/15 06:40:19;;;;;;;10.15;2.25;;;6.20;99.90;;;;;;4929809;29;20028;-73
2022/02/15 06:42:46;;;;;;;3.72;2.15;;;6.30;99.90;;;;;;4929543;29;20035;-72
2022/02/15 06:45:12;;;;;;;7.50;2.53;;;6.20;99.90;;;;;;4935053;29;20024;-74
2022/02/15 06:47:38;;;;;;;9.07;3.10;;;6.20;99.90;;;;;;4939996;29;20028;-73
2022/02/15 06:50:05;;;;;;;4.10;2.05;;;6.20;99.90;;;;;;4929710;29;20028;-74
2022/02/15 06:52:32;;;;;;;17.08;2.65;;;6.20;99.90;;;;;;4931917;29;20043;-74
2022/02/15 06:54:58;;;;;;;4.78;2.08;;;6.20;99.90;;;;;;4937918;29;20113;-73
2022/02/15 06:57:23;;;;;;;4.75;2.20;;;6.20;99.90;;;;;;4929218;29;20032;-74
2022/02/15 06:59:49;;;;;;;7.68;3.08;;;6.20;99.90;;;;;;4929330;29;20067;-75
2022/02/15 07:02:21;;;;;;;7.63;3.00;;;6.20;99.90;;;;;;4931617;29;20509;-73
2022/02/15 07:04:48;;;;;;;13.77;3.50;;;6.20;99.90;;;;;;4948839;29;20027;-74
2022/02/15 07:07:14;;;;;;;11.43;3.47;;;6.30;99.90;;;;;;4967414;28;20484;-73
2022/02/15 07:09:40;;;;;;;9.20;2.85;;;6.30;99.90;;;;;;4967792;29;20104;-72
2022/02/15 07:12:18;;;;;;;7.57;3.15;;;6.30;99.90;;;;;;4966139;29;20031;-74
2022/02/15 07:14:44;;;;;;;5.18;2.53;;;6.30;99.90;;;;;;4967336;28;20091;-72
2022/02/15 07:17:10;;;;;;;9.48;3.28;;;6.30;99.90;;;;;;4945843;29;20039;-73
2022/02/15 07:19:35;;;;;;;9.88;3.70;;;6.30;99.90;;;;;;4953265;29;20028;-72
2022/02/15 07:22:03;;;;;;;9.40;3.60;;;6.30;99.90;;;;;;4929163;29;20092;-74
2022/02/15 07:24:29;;;;;;;11.00;3.42;;;6.40;99.90;;;;;;4933971;29;20040;-74
2022/02/15 07:26:55;;;;;;;4.53;2.58;;;6.40;99.90;;;;;;4947911;29;20050;-71
2022/02/15 07:29:21;;;;;;;7.60;2.63;;;6.40;99.90;;;;;;4947702;29;20059;-71
2022/02/15 07:31:48;;;;;;;6.75;3.40;;;6.40;99.90;;;;;;4947970;29;20048;-73
2022/02/15 07:34:15;;;;;;;10.43;3.75;;;6.40;99.90;;;;;;4947237;29;20028;-72
2022/02/15 07:36:40;;;;;;;8.57;3.97;;;6.40;99.90;;;;;;4947749;29;20020;-72
2022/02/15 07:39:06;;;;;;;13.45;3.60;;;6.40;99.90;;;;;;4943002;29;20030;-74
2022/02/15 07:41:32;;;;;;;5.47;2.90;;;6.40;99.90;;;;;;4947713;29;20035;-72
2022/02/15 07:43:58;;;;;;;11.65;3.15;;;6.40;99.90;;;;;;4946931;29;20044;-74
2022/02/15 07:46:24;;;;;;;13.95;3.72;;;6.50;99.90;;;;;;4929759;29;20068;-74
2022/02/15 07:48:51;;;;;;;8.75;3.17;;;6.50;99.90;;;;;;4945698;29;20095;-73
2022/02/15 07:51:18;;;;;;;7.43;3.15;;;6.50;99.90;;;;;;4947595;29;20024;-72
2022/02/15 07:53:44;;;;;;;7.15;3.30;;;6.50;99.90;;;;;;4947806;29;20042;-73
2022/02/15 07:56:10;;;;;;;6.65;3.10;;;6.50;99.90;;;;;;4946711;29;20044;-73
2022/02/15 07:58:36;;;;;;;7.40;2.63;;;6.50;99.90;;;;;;4947261;29;20730;-72
2022/02/15 08:01:02;;;;;;;5.63;2.78;;;6.50;99.90;;;;;;4946365;29;20059;-74
2022/02/15 08:03:28;;;;;;;6.40;3.00;;;6.50;99.90;;;;;;4930725;29;20115;-72
2022/02/15 08:05:54;;;;;;;9.43;2.95;;;6.60;99.90;;;;;;4928571;29;20025;-73
2022/02/15 08:08:20;;;;;;;8.80;4.13;;;6.60;99.90;;;;;;4939407;29;20832;-71
2022/02/15 08:10:47;;;;;;;6.70;2.78;;;6.60;99.90;;;;;;4935940;29;20042;-72
2022/02/15 08:13:18;;;;;;;6.38;2.90;;;6.70;99.90;;;;;;4936229;29;20024;-72
2022/02/15 08:15:45;;;;;;;7.28;2.78;;;6.60;99.90;;;;;;4947129;29;20043;-73
2022/02/15 08:18:11;;;;;;;9.27;3.20;;;6.70;99.90;;;;;;4944553;29;20047;-72
2022/02/15 08:20:38;;;;;;;12.02;3.20;;;6.70;99.90;;;;;;4940200;28;20091;-73
2022/02/15 08:23:05;;;;;;;6.78;2.83;;;6.80;99.90;;;;;;4956663;29;20117;-73
2022/02/15 08:25:34;;;;;;;6.60;3.03;;;6.80;99.90;;;;;;4960698;29;20027;-73
2022/02/15 08:28:01;;;;;;;10.20;3.00;;;6.80;99.90;;;;;;4939076;29;20027;-72
2022/02/15 08:30:27;;;;;;;7.63;3.10;;;6.80;99.90;;;;;;4927671;29;20059;-73
2022/02/15 08:32:53;;;;;;;8.07;3.78;;;6.90;99.90;;;;;;4954804;29;20031;-73
2022/02/15 08:35:19;;;;;;;6.57;3.47;;;6.90;99.90;;;;;;4943819;29;20108;-74
2022/02/15 08:37:45;;;;;;;9.60;3.70;;;6.90;99.90;;;;;;4959496;29;20027;-73
2022/02/15 08:40:12;;;;;;;6.57;3.67;;;6.90;99.90;;;;;;4964666;29;20102;-72
2022/02/15 08:42:39;;;;;;;11.57;4.20;;;6.90;99.90;;;;;;4966316;29;20469;-72
2022/02/15 08:45:07;;;;;;;9.60;3.53;;;6.90;99.90;;;;;;4954176;29;20123;-72
2022/02/15 08:47:34;;;;;;;8.43;3.53;;;6.90;99.90;;;;;;4934669;29;20035;-71
2022/02/15 08:49:59;;;;;;;9.38;3.92;;;7.00;99.90;;;;;;4946105;29;20031;-72
2022/02/15 08:52:28;;;;;;;8.63;3.88;;;7.10;99.90;;;;;;4944492;29;20034;-74
2022/02/15 08:54:54;;;;;;;7.63;3.35;;;7.40;99.90;;;;;;4929522;29;20048;-72
2022/02/15 08:57:21;;;;;;;10.93;3.03;;;7.70;99.90;;;;;;4940217;29;20096;-74
2022/02/15 08:59:53;;;;;;;5.65;3.20;;;8.20;99.90;;;;;;4945677;29;20035;-71
2022/02/15 09:02:19;;;;;;;12.15;3.70;;;8.50;99.90;;;;;;4951705;28;20118;-71
2022/02/15 09:04:46;;;;;;;10.15;3.63;;;8.60;99.90;;;;;;4965260;29;20024;-75
2022/02/15 09:07:11;;;;;;;12.40;3.97;;;8.70;99.90;;;;;;4950722;28;20032;-73
2022/02/15 09:09:37;;;;;;;10.32;3.25;;;8.70;99.90;;;;;;4943344;29;20120;-73
2022/02/15 09:12:03;;;;;;;29.05;4.55;;;8.70;99.90;;;;;;4937739;29;20023;-73
2022/02/15 09:14:29;;;;;;;10.23;3.83;;;8.60;99.90;;;;;;4946408;29;20079;-72
2022/02/15 09:16:57;;;;;;;11.25;3.28;;;8.50;99.90;;;;;;4945043;29;20024;-72
2022/02/15 09:19:28;;;;;;;8.02;3.05;;;8.40;99.90;;;;;;4944275;29;20031;-71
2022/02/15 09:21:55;;;;;;;10.10;4.28;;;8.30;99.90;;;;;;4930883;29;20040;-72
2022/02/15 09:24:21;;;;;;;8.80;3.97;;;8.20;99.90;;;;;;4928498;29;20036;-73
2022/02/15 09:26:47;;;;;;;10.73;3.97;;;8.10;99.90;;;;;;4938622;29;20032;-73
2022/02/15 09:29:13;;;;;;;12.35;4.55;;;8.10;99.90;;;;;;4961241;28;20054;-73
2022/02/15 09:31:40;;;;;;;7.88;4.25;;;8.10;99.90;;;;;;4949663;28;20023;-72
2022/02/15 09:34:07;;;;;;;7.75;4.00;;;8.10;99.90;;;;;;4930737;29;20533;-73
2022/02/15 09:36:35;;;;;;;9.95;3.88;;;8.10;99.90;;;;;;4939915;29;20041;-73
2022/02/15 09:39:06;;;;;;;15.57;3.95;;;8.10;99.90;;;;;;4939316;29;20040;-73
2022/02/15 09:41:34;;;;;;;10.55;4.28;;;8.10;99.90;;;;;;4939315;29;20038;-73
2022/02/15 09:44:06;;;;;;;9.30;4.53;;;7.90;99.90;;;;;;4941452;29;20353;-74
2022/02/15 09:46:33;;;;;;;10.45;3.88;;;7.90;99.90;;;;;;4947957;29;20102;-73
2022/02/15 09:49:01;;;;;;;9.10;3.90;;;7.80;99.90;;;;;;4964706;28;20067;-73
2022/02/15 09:51:27;;;;;;;7.65;3.70;;;7.80;99.90;;;;;;4955905;29;20037;-72
2022/02/15 09:53:53;;;;;;;11.43;4.15;;;7.80;99.90;;;;;;4959856;29;20673;-72
2022/02/15 09:56:19;;;;;;;11.13;4.20;;;7.80;99.90;;;;;;4949243;29;20035;-72
2022/02/15 09:58:45;;;;;;;17.20;4.70;;;7.80;99.90;;;;;;4945998;29;20488;-73
2022/02/15 10:01:15;;;;;;;12.48;4.85;;;8.00;99.90;;;;;;4943401;29;20034;-73
2022/02/15 10:03:58;;;;;;;10.27;3.85;;;8.30;99.90;;;;;;4930148;29;20477;-72
2022/02/15 10:06:40;;;;;;;8.77;3.95;;;8.40;99.90;;;;;;4947615;29;20066;-74
2022/02/15 10:09:09;;;;;;;9.30;4.30;;;8.50;99.90;;;;;;4950870;29;20489;-74
2022/02/15 10:11:40;;;;;;;6.50;3.03;;;8.50;99.90;;;;;;4947977;29;20063;-73
2022/02/15 10:14:09;;;;;;;9.55;4.13;;;8.50;99.90;;;;;;4941832;29;20029;-71
2022/02/15 10:16:46;;;;;;;6.90;3.45;;;8.50;99.90;;;;;;4929414;29;20036;-72
2022/02/15 10:19:25;;;;;;;9.35;3.30;;;8.50;99.90;;;;;;4944142;29;20040;-72
2022/02/15 10:21:54;;;;;;;8.48;3.72;;;8.50;99.90;;;;;;4942487;29;20363;-73
2022/02/15 10:24:22;;;;;;;7.22;3.00;;;8.60;99.90;;;;;;4942171;29;20117;-73
2022/02/15 10:26:58;;;;;;;9.00;3.08;;;8.70;99.90;;;;;;4947517;29;20047;-73
2022/02/15 10:29:25;;;;;;;7.68;3.63;;;8.80;99.90;;;;;;4945878;29;20066;-72
2022/02/15 10:31:58;;;;;;;8.65;2.92;;;8.90;99.90;;;;;;4946178;29;20027;-74
2022/02/15 10:34:25;;;;;;;6.18;3.40;;;9.00;99.90;;;;;;4947737;28;20459;-73
2022/02/15 10:37:23;;;;;;;6.97;3.13;;;9.00;99.90;;;;;;4942351;29;20034;-73
2022/02/15 10:39:55;;;;;;;11.25;3.40;;;8.90;99.90;;;;;;4924528;29;20040;-73
2022/02/15 10:42:24;;;;;;;13.85;4.03;;;8.90;99.90;;;;;;4923739;29;20036;-76
2022/02/15 10:45:08;;;;;;;10.27;3.15;;;8.80;99.90;;;;;;4924174;29;20063;-76
2022/02/15 10:48:01;;;;;;;;;;;8.70;99.90;;;;;;4925377;29;20036;-74
2022/02/15 10:50:29;;;;;;;10.20;4.38;;;8.60;99.90;;;;;;4925577;29;19911;-71
2022/02/15 10:52:55;;;;;;;8.93;3.72;;;8.50;99.90;;;;;;4928660;29;20452;-72
2022/02/15 10:55:21;;;;;;;10.82;4.88;;;8.50;99.90;;;;;;4928549;29;20552;-71
2022/02/15 10:57:46;;;;;;;12.75;4.82;;;8.50;99.90;;;;;;4928216;29;20038;-73
2022/02/15 11:00:13;;;;;;;12.10;4.80;;;8.50;99.90;;;;;;4928415;29;20031;-72
2022/02/15 11:02:40;;;;;;;9.93;5.45;;;8.50;99.90;;;;;;4953086;29;20023;-74
2022/02/15 11:05:11;;;;;;;14.00;5.78;;;8.70;99.90;;;;;;4947300;28;20016;-73
2022/02/15 11:07:38;;;;;;;16.25;5.10;;;8.80;99.90;;;;;;4938916;29;20105;-73
2022/02/15 11:10:18;;;;;;;14.57;6.13;;;8.80;99.90;;;;;;4930478;29;20030;-74
2022/02/15 11:12:48;;;;;;;13.82;6.20;;;8.80;99.90;;;;;;4947881;29;20020;-73
2022/02/15 11:15:20;;;;;;;15.00;6.72;;;8.70;99.90;;;;;;4955756;29;20046;-74
2022/02/15 11:18:03;;;;;;;20.20;6.80;;;8.70;99.90;;;;;;4966095;28;20031;-72
2022/02/15 11:20:56;;;;;;;15.95;6.28;;;8.60;99.90;;;;;;4966166;28;20054;-73
2022/02/15 11:23:32;;;;;;;14.48;6.07;;;8.50;99.90;;;;;;4966143;28;20601;-74
2022/02/15 11:26:17;;;;;;;21.30;7.07;;;8.50;99.90;;;;;;4962405;28;20404;-74
2022/02/15 11:28:50;;;;;;;16.10;6.68;;;8.40;99.90;;;;;;4954589;29;20110;-72
2022/02/15 11:31:40;;;;;;;20.83;8.63;;;8.50;99.90;;;;;;4956633;29;20036;-73
2022/02/15 11:34:10;;;;;;;15.50;6.50;;;8.60;99.90;;;;;;4950720;29;20036;-73
2022/02/15 11:36:49;;;;;;;23.23;6.90;;;8.70;99.90;;;;;;4946781;28;20075;-73
2022/02/15 11:39:20;;;;;;;17.60;6.70;;;8.80;99.90;;;;;;4948955;29;20460;-75
2022/02/15 11:41:51;;;;;;;13.77;6.68;;;9.10;99.90;;;;;;4946660;29;20051;-74
2022/02/15 11:44:35;;;;;;;17.17;7.40;;;9.40;99.90;;;;;;4946991;29;20043;-72
2022/02/15 11:47:25;;;;;;;13.43;6.68;;;10.00;99.90;;;;;;4946063;29;20039;-75
2022/02/15 11:49:59;;;;;;;19.02;7.40;;;10.40;99.90;;;;;;4931191;29;20715;-75
2022/02/15 11:52:27;;;;;;;;;;;10.80;99.90;;;;;;4946428;29;20028;-71
2022/02/15 11:55:00;;;;;;;13.10;4.55;;;11.50;99.90;;;;;;4946635;29;19919;-74
2022/02/15 11:57:27;;;;;;;13.13;6.25;;;12.00;99.90;;;;;;4961758;29;20024;-74
2022/02/15 11:59:53;;;;;;;13.38;5.65;;;12.30;99.90;;;;;;4946481;29;20032;-76
2022/02/15 12:02:19;;;;;;;13.32;6.90;;;12.60;99.90;;;;;;4946785;29;20059;-73
2022/02/15 12:04:58;;;;;;;12.85;5.57;;;12.60;99.90;;;;;;4938401;29;20040;-73
2022/02/15 12:07:29;;;;;;;12.00;5.97;;;12.30;99.90;;;;;;4927360;29;20407;-72
2022/02/15 12:09:56;;;;;;;11.15;5.20;;;12.30;99.90;;;;;;4928140;29;20109;-73
2022/02/15 12:12:29;;;;;;;15.98;5.95;;;12.30;99.90;;;;;;4925808;29;20044;-72
2022/02/15 12:14:56;;;;;;;17.17;5.35;;;12.10;99.90;;;;;;4927312;29;20038;-73
2022/02/15 12:17:24;;;;;;;35.22;5.90;;;11.60;99.90;;;;;;4927463;29;20043;-73
2022/02/15 12:19:57;;;;;;;18.52;6.68;;;11.30;99.90;;;;;;4927563;29;20068;-72
2022/02/15 12:22:24;;;;;;;33.08;5.93;;;10.90;99.90;;;;;;4939974;29;20058;-70
2022/02/15 12:24:55;;;;;;;15.13;7.03;;;10.60;99.90;;;;;;4937460;29;20028;-72
2022/02/15 12:27:22;;;;;;;12.27;5.63;;;10.40;99.90;;;;;;4938952;29;20032;-72
2022/02/15 12:30:06;;;;;;;13.90;5.85;;;10.30;99.90;;;;;;4956326;29;20500;-73
2022/02/15 12:32:33;;;;;;;15.65;6.30;;;10.50;99.90;;;;;;4965503;29;20139;-71
2022/02/15 12:34:58;;;;;;;15.70;6.13;;;10.90;99.90;;;;;;4965182;29;20079;-72
2022/02/15 12:37:26;;;;;;;15.10;6.30;;;11.60;99.90;;;;;;4965316;29;20020;-72
2022/02/15 12:39:57;;;;;;;15.93;6.57;;;11.70;99.90;;;;;;4943464;29;20081;-74
2022/02/15 12:42:28;;;;;;;11.57;4.82;;;11.50;99.90;;;;;;4944799;29;20020;-73
2022/02/15 12:45:04;;;;;;;11.35;4.93;;;11.20;99.90;;;;;;4927172;29;20035;-72
2022/02/15 12:47:35;;;;;;;16.50;5.53;;;11.60;99.90;;;;;;4927092;29;20048;-73
2022/02/15 12:50:03;;;;;;;9.60;4.80;;;11.90;99.90;;;;;;4927313;29;20024;-75
2022/02/15 12:52:36;;;;;;;7.40;3.90;;;12.10;99.90;;;;;;4927114;29;20119;-72
2022/02/15 12:55:12;;;;;;;6.47;3.03;;;12.30;99.90;;;;;;4926732;29;20112;-73
2022/02/15 12:57:39;;;;;;;9.98;4.35;;;12.20;99.90;;;;;;4927145;29;20032;-72
2022/02/15 13:00:07;;;;;;;9.90;4.40;;;11.80;99.90;;;;;;4927561;29;20025;-74
2022/02/15 13:02:35;;;;;;;8.75;4.10;;;11.60;99.90;;;;;;4930830;29;20029;-73